This is the latest recevied weather packets stored in our database for station/object R2AJV-13. If no packets are shown the sender has not sent any weather packets the latest 10 day(s).
| Time | Temp. | Humidity | Pressure | Rain* | Wind** | Luminosity | Snow |
|---|---|---|---|---|---|---|---|
| 1778109348 | 7.22° C | 70% | 998.7 hPa | 0 mm | - | - | - |
| 1778108438 | 7.22° C | 70% | 998.8 hPa | 0 mm | - | - | - |
| 1778107526 | 7.22° C | 69% | 998.8 hPa | 0 mm | - | - | - |
| 1778106621 | 7.22° C | 68% | 998.8 hPa | 0 mm | - | - | - |
| 1778105772 | 7.78° C | 65% | 998.9 hPa | 0 mm | - | - | - |
| 1778104862 | 8.89° C | 62% | 999 hPa | 0 mm | - | - | - |
| 1778103951 | 9.44° C | 60% | 999.2 hPa | 0 mm | - | - | - |
| 1778103046 | 10° C | 59% | 998.9 hPa | 0 mm | - | - | - |
| 1778102134 | 10° C | 57% | 998.9 hPa | 0 mm | - | - | - |
| 1778101257 | 10.56° C | 57% | 998.9 hPa | 0 mm | - | - | - |
| 1778100346 | 10.56° C | 56% | 999 hPa | 0 mm | - | - | - |
| 1778099436 | 11.11° C | 58% | 999.1 hPa | 0 mm | - | - | - |
| 1778098525 | 11.11° C | 62% | 999.2 hPa | 0 mm | - | - | - |
| 1778097674 | 11.67° C | 66% | 999 hPa | 0 mm | - | - | - |
| 1778096769 | 11.67° C | 64% | 998.8 hPa | 0 mm | - | - | - |
| 1778095860 | 10° C | 75% | 998.6 hPa | 0 mm | - | - | - |
| 1778094948 | 10° C | 80% | 998.3 hPa | 0 mm | - | - | - |
| 1778094037 | 10.56° C | 79% | 998.2 hPa | 0 mm | - | - | - |
| 1778093127 | 11.67° C | 73% | 998.1 hPa | 0 mm | - | - | - |
| 1778092222 | 12.78° C | 68% | 998 hPa | 0 mm | - | - | - |
| 1778091372 | 13.33° C | 65% | 997.8 hPa | 0 mm | - | - | - |
| 1778090461 | 13.33° C | 62% | 997.6 hPa | 0 mm | - | - | - |
| 1778089550 | 14.44° C | 58% | 997.5 hPa | 0 mm | - | - | - |
| 1778088646 | 16.11° C | 54% | 997.2 hPa | 0 mm | - | - | - |
| 1778086859 | 16.67° C | 52% | 996.8 hPa | 0 mm | - | - | - |
* Rain latest hour (hover to see other rain measurements)
** Current wind speed in m/s (hover to see current wind gust speed)